createdAt,value
2022-12-25T00:01:50.993Z,33.20
2022-12-25T00:04:27.217Z,32.15
2022-12-25T00:07:00.519Z,37.53
2022-12-25T00:09:42.331Z,38.43
2022-12-25T00:12:22.916Z,40.53
2022-12-25T00:14:54.646Z,40.97
2022-12-25T00:17:30.721Z,42.10
2022-12-25T00:20:08.883Z,41.95
2022-12-25T00:22:43.102Z,45.30
2022-12-25T00:25:11.447Z,42.40
2022-12-25T00:27:43.789Z,44.45
2022-12-25T00:33:07.188Z,43.90
2022-12-25T00:45:27.953Z,42.17
2022-12-25T00:48:13.943Z,48.05
2022-12-25T00:50:44.466Z,50.13
2022-12-25T00:53:16.623Z,47.87
2022-12-25T00:56:11.442Z,50.00
2022-12-25T00:58:47.163Z,47.30
2022-12-25T01:01:26.875Z,43.20
2022-12-25T01:03:55.284Z,45.83
2022-12-25T01:06:32.718Z,47.43
2022-12-25T01:09:18.546Z,43.13
2022-12-25T01:11:48.519Z,46.55
2022-12-25T01:14:26.478Z,48.38
2022-12-25T01:16:58.767Z,41.33
2022-12-25T01:19:27.086Z,43.63
2022-12-25T01:21:56.638Z,40.83
2022-12-25T01:24:26.604Z,40.38
2022-12-25T01:27:01.083Z,44.38
2022-12-25T01:29:31.962Z,46.72
2022-12-25T01:32:14.003Z,49.03
2022-12-25T01:34:49.338Z,42.45
2022-12-25T01:37:29.313Z,49.17
2022-12-25T01:40:01.761Z,48.88
2022-12-25T01:42:39.965Z,54.78
2022-12-25T01:45:28.315Z,50.20
2022-12-25T01:48:18.823Z,47.78
2022-12-25T01:50:58.136Z,53.38
2022-12-25T01:53:28.559Z,51.15
2022-12-25T01:56:09.385Z,53.90
2022-12-25T01:58:40.081Z,55.97
2022-12-25T02:01:25.504Z,61.17
2022-12-25T02:04:02.386Z,60.40
2022-12-25T02:06:40.463Z,56.58
2022-12-25T02:09:13.926Z,56.47
2022-12-25T02:12:03.787Z,59.93
2022-12-25T02:14:35.523Z,62.58
2022-12-25T02:17:45.154Z,60.15
2022-12-25T02:20:35.721Z,59.58
2022-12-25T02:23:28.059Z,60.30
2022-12-25T02:26:40.034Z,52.33
2022-12-25T02:29:58.040Z,52.67
2022-12-25T02:33:17.507Z,58.55
2022-12-25T02:35:56.768Z,59.40
2022-12-25T02:39:04.963Z,60.95
2022-12-25T02:41:47.574Z,60.67
2022-12-25T02:44:42.032Z,54.35
2022-12-25T02:47:31.347Z,53.58
2022-12-25T02:50:27.730Z,63.10
2022-12-25T02:53:28.703Z,60.97
2022-12-25T02:56:19.974Z,59.03
2022-12-25T02:59:12.304Z,56.17
2022-12-25T03:02:06.657Z,52.17
2022-12-25T03:05:00.183Z,54.67
2022-12-25T03:08:38.887Z,54.75
2022-12-25T03:11:41.031Z,61.73
2022-12-25T03:14:33.382Z,55.05
2022-12-25T03:17:09.614Z,53.08
2022-12-25T03:20:00.819Z,52.58
2022-12-25T03:22:57.377Z,55.47
2022-12-25T03:25:49.496Z,46.20
2022-12-25T03:28:30.790Z,46.05
2022-12-25T03:31:12.874Z,47.20
2022-12-25T03:34:28.732Z,45.65
2022-12-25T03:37:47.005Z,44.25
2022-12-25T03:40:50.269Z,41.60
2022-12-25T03:44:01.400Z,49.10
2022-12-25T03:46:53.069Z,44.25
2022-12-25T03:49:53.655Z,39.38
2022-12-25T03:52:45.916Z,41.83
2022-12-25T03:55:35.035Z,44.77
2022-12-25T03:58:50.283Z,41.60
2022-12-25T04:01:41.636Z,40.30
2022-12-25T04:04:34.955Z,44.42
2022-12-25T04:07:28.659Z,43.20
2022-12-25T04:10:18.917Z,48.33
2022-12-25T04:13:08.635Z,46.17
2022-12-25T04:16:05.776Z,45.08
2022-12-25T04:19:01.757Z,44.30
2022-12-25T04:21:57.539Z,42.45
2022-12-25T04:24:59.063Z,40.47
2022-12-25T04:27:50.461Z,42.05
2022-12-25T04:30:38.612Z,53.08
2022-12-25T04:33:32.231Z,53.75
2022-12-25T04:36:12.380Z,59.78
2022-12-25T04:38:41.132Z,62.20
2022-12-25T04:41:13.930Z,68.63
2022-12-25T04:43:52.216Z,57.80
2022-12-25T04:46:22.490Z,50.45
2022-12-25T04:49:11.998Z,46.72
2022-12-25T04:51:42.052Z,47.67
2022-12-25T04:54:17.065Z,43.95
2022-12-25T04:56:58.558Z,43.15
2022-12-25T04:59:29.233Z,40.08
2022-12-25T05:02:07.522Z,39.75
2022-12-25T05:04:43.089Z,42.20
2022-12-25T05:07:31.818Z,38.38
2022-12-25T05:10:02.979Z,36.88
2022-12-25T05:12:42.694Z,40.80
2022-12-25T05:15:13.689Z,36.03
2022-12-25T05:17:54.853Z,35.47
2022-12-25T05:20:41.130Z,36.60
2022-12-25T05:23:23.912Z,33.35
2022-12-25T05:26:28.322Z,25.08
2022-12-25T05:28:58.636Z,28.58
2022-12-25T05:31:34.845Z,25.43
2022-12-25T05:34:05.071Z,24.05
2022-12-25T05:36:38.157Z,25.17
2022-12-25T05:39:12.976Z,24.42
2022-12-25T05:41:42.947Z,26.52
2022-12-25T05:44:19.670Z,30.40
2022-12-25T05:51:14.677Z,31.50
2022-12-25T05:58:24.079Z,27.70
2022-12-25T06:00:58.400Z,28.93
2022-12-25T06:03:31.924Z,29.00
2022-12-25T06:06:09.319Z,29.45
2022-12-25T06:08:40.015Z,29.23
2022-12-25T06:11:17.777Z,24.27
2022-12-25T06:13:57.594Z,31.10
2022-12-25T06:16:37.665Z,24.27
2022-12-25T06:19:13.377Z,25.55
2022-12-25T06:21:52.631Z,28.05
2022-12-25T06:24:27.171Z,30.00
2022-12-25T06:27:03.199Z,30.13
2022-12-25T06:29:41.593Z,28.08
2022-12-25T06:32:18.188Z,30.27
2022-12-25T06:35:05.732Z,32.22
2022-12-25T06:37:37.272Z,42.20
2022-12-25T06:40:15.625Z,48.83
2022-12-25T06:42:48.152Z,40.33
2022-12-25T06:45:21.293Z,41.35
2022-12-25T06:47:55.326Z,34.55
2022-12-25T06:50:28.889Z,37.95
2022-12-25T06:53:07.903Z,33.10
2022-12-25T06:55:54.708Z,30.38
2022-12-25T06:58:27.996Z,35.33
2022-12-25T07:01:11.127Z,35.65
2022-12-25T07:03:42.418Z,31.25
2022-12-25T07:06:15.334Z,25.73
2022-12-25T07:08:52.117Z,29.52
2022-12-25T07:11:30.332Z,30.63
2022-12-25T07:14:05.687Z,25.65
2022-12-25T07:16:38.461Z,27.98
2022-12-25T07:19:12.599Z,26.00
2022-12-25T07:21:51.066Z,26.43
2022-12-25T07:24:27.496Z,32.50
2022-12-25T07:27:00.703Z,36.22
2022-12-25T07:29:38.144Z,39.70
2022-12-25T07:32:19.414Z,41.00
2022-12-25T07:35:07.109Z,37.30
2022-12-25T07:38:06.751Z,35.85
2022-12-25T07:41:11.793Z,33.72
2022-12-25T07:43:41.689Z,30.15
2022-12-25T07:50:40.151Z,27.65
2022-12-25T07:53:11.010Z,31.63
2022-12-25T07:55:43.537Z,30.27
2022-12-25T07:58:31.877Z,31.63
2022-12-25T08:01:13.459Z,37.10
2022-12-25T08:03:58.570Z,35.08
2022-12-25T08:06:35.299Z,39.42
2022-12-25T08:09:16.036Z,39.90
2022-12-25T08:11:47.199Z,35.95
2022-12-25T08:14:21.836Z,37.40
2022-12-25T08:16:57.650Z,39.70
2022-12-25T08:19:31.855Z,39.20
2022-12-25T08:22:00.196Z,38.08
2022-12-25T08:24:30.336Z,39.42
2022-12-25T08:27:00.319Z,34.47
2022-12-25T08:29:36.718Z,31.23
2022-12-25T08:32:08.159Z,27.13
2022-12-25T08:34:38.865Z,31.25
2022-12-25T08:41:40.023Z,32.67
2022-12-25T08:44:12.071Z,31.53
2022-12-25T08:46:49.548Z,29.52
2022-12-25T08:53:33.904Z,41.10
2022-12-25T08:56:11.653Z,43.47
2022-12-25T08:58:58.292Z,38.87
2022-12-25T09:01:30.689Z,37.28
2022-12-25T09:04:18.594Z,43.88
2022-12-25T09:06:46.439Z,42.97
2022-12-25T09:09:16.523Z,43.15
2022-12-25T09:12:00.292Z,43.27
2022-12-25T09:14:39.314Z,37.17
2022-12-25T09:17:15.254Z,40.45
2022-12-25T09:19:53.586Z,31.23
2022-12-25T09:22:24.158Z,32.28
2022-12-25T09:24:57.794Z,31.83
2022-12-25T09:27:33.446Z,24.95
2022-12-25T09:30:00.639Z,23.90
2022-12-25T09:32:51.127Z,20.30
2022-12-25T09:35:32.428Z,20.83
2022-12-25T09:37:59.940Z,20.33
2022-12-25T09:40:34.776Z,25.48
2022-12-25T09:43:05.952Z,20.35
2022-12-25T09:45:38.110Z,21.63
2022-12-25T09:48:23.250Z,20.33
2022-12-25T09:51:02.871Z,19.03
2022-12-25T09:53:48.655Z,19.95
2022-12-25T09:56:27.337Z,18.48
2022-12-25T09:59:00.295Z,16.55
2022-12-25T10:02:27.657Z,15.98
2022-12-25T10:05:23.620Z,13.63
2022-12-25T10:08:27.753Z,14.18
2022-12-25T10:11:11.769Z,13.73
2022-12-25T10:14:09.689Z,12.80
2022-12-25T10:16:48.194Z,14.65
2022-12-25T10:19:56.262Z,13.93
2022-12-25T10:22:31.222Z,13.80
2022-12-25T10:25:25.072Z,14.65
2022-12-25T10:28:16.014Z,16.30
2022-12-25T10:30:48.962Z,14.23
2022-12-25T10:33:20.339Z,14.20
2022-12-25T10:38:48.567Z,15.13
2022-12-25T10:41:50.123Z,15.05
2022-12-25T10:45:17.385Z,14.43
2022-12-25T10:48:00.635Z,16.30
2022-12-25T10:50:47.342Z,12.98
2022-12-25T10:53:25.336Z,13.07
2022-12-25T10:56:06.312Z,13.63
2022-12-25T10:58:38.804Z,14.55
2022-12-25T11:01:07.768Z,13.93
2022-12-25T11:03:41.139Z,12.32
2022-12-25T11:06:27.321Z,13.60
2022-12-25T11:09:03.260Z,13.05
2022-12-25T11:11:43.475Z,12.07
2022-12-25T11:14:32.521Z,14.03
2022-12-25T11:17:21.667Z,11.40
2022-12-25T11:19:59.883Z,12.68
2022-12-25T11:22:33.015Z,11.93
2022-12-25T11:25:22.518Z,10.38
2022-12-25T11:28:15.270Z,12.87
2022-12-25T11:30:49.363Z,10.60
2022-12-25T11:33:24.958Z,10.93
2022-12-25T11:36:03.700Z,14.68
2022-12-25T11:38:40.285Z,13.45
2022-12-25T11:41:23.644Z,15.30
2022-12-25T11:44:03.304Z,14.68
2022-12-25T11:46:45.885Z,13.10
2022-12-25T11:49:16.320Z,13.60
2022-12-25T11:51:51.816Z,12.13
2022-12-25T11:54:33.254Z,12.03
2022-12-25T11:57:13.902Z,10.45
2022-12-25T12:00:16.345Z,10.00
2022-12-25T12:02:58.862Z,12.20
2022-12-25T12:05:37.934Z,12.75
2022-12-25T12:08:11.819Z,10.67
2022-12-25T12:11:39.967Z,10.57
2022-12-25T12:14:24.186Z,12.70
2022-12-25T12:17:00.635Z,9.60
2022-12-25T12:19:39.433Z,10.60
2022-12-25T12:22:31.803Z,10.17
2022-12-25T12:25:21.117Z,11.57
2022-12-25T12:28:05.791Z,12.32
2022-12-25T12:30:41.369Z,12.38
2022-12-25T12:33:24.588Z,12.95
2022-12-25T12:36:00.270Z,16.03
2022-12-25T12:38:34.895Z,10.73
2022-12-25T12:41:10.621Z,10.10
2022-12-25T12:43:57.851Z,13.20
2022-12-25T12:46:36.664Z,10.05
2022-12-25T12:49:25.380Z,12.13
2022-12-25T12:52:13.438Z,9.60
2022-12-25T12:55:04.588Z,12.88
2022-12-25T12:57:45.478Z,11.43
2022-12-25T13:00:18.471Z,10.50
2022-12-25T13:03:39.821Z,10.47
2022-12-25T13:06:24.988Z,15.60
2022-12-25T13:09:09.890Z,11.98
2022-12-25T13:11:52.066Z,13.20
2022-12-25T13:14:27.117Z,12.18
2022-12-25T13:16:55.611Z,9.93
2022-12-25T13:19:35.030Z,13.63
2022-12-25T13:22:08.260Z,12.20
2022-12-25T13:24:45.774Z,15.15
2022-12-25T13:27:39.351Z,14.88
2022-12-25T13:30:26.795Z,16.13
2022-12-25T13:33:08.816Z,15.38
2022-12-25T13:35:53.057Z,13.77
2022-12-25T13:41:28.782Z,15.63
2022-12-25T13:44:03.265Z,12.87
2022-12-25T13:46:45.139Z,17.48
2022-12-25T13:49:33.503Z,13.77
2022-12-25T13:52:25.046Z,11.63
2022-12-25T13:54:58.504Z,12.82
2022-12-25T13:57:36.880Z,11.00
2022-12-25T14:00:08.711Z,13.25
2022-12-25T14:02:44.886Z,12.45
2022-12-25T14:05:43.658Z,10.40
2022-12-25T14:08:24.227Z,14.45
2022-12-25T14:10:55.868Z,14.10
2022-12-25T14:13:53.276Z,15.57
2022-12-25T14:16:36.142Z,14.32
2022-12-25T14:19:34.862Z,17.85
2022-12-25T14:22:13.559Z,14.55
2022-12-25T14:24:49.522Z,18.57
2022-12-25T14:27:34.112Z,19.10
2022-12-25T14:30:14.927Z,18.13
2022-12-25T14:32:53.785Z,17.02
2022-12-25T14:35:23.819Z,12.68
2022-12-25T14:38:03.146Z,13.80
2022-12-25T14:40:32.555Z,12.02
2022-12-25T14:43:22.790Z,11.55
2022-12-25T14:46:02.855Z,9.65
2022-12-25T14:48:41.605Z,11.63
2022-12-25T14:51:17.119Z,10.23
2022-12-25T14:53:55.196Z,13.95
2022-12-25T14:56:40.299Z,12.68
2022-12-25T14:59:30.726Z,10.05
2022-12-25T15:02:22.200Z,11.80
2022-12-25T15:05:00.657Z,9.63
2022-12-25T15:07:38.986Z,10.25
2022-12-25T15:10:57.495Z,10.50
2022-12-25T15:13:13.331Z,12.10
2022-12-25T15:15:56.897Z,11.38
2022-12-25T15:18:27.239Z,12.77
2022-12-25T15:20:59.718Z,11.90
2022-12-25T15:23:34.749Z,11.18
2022-12-25T15:26:03.059Z,14.55
2022-12-25T15:28:50.604Z,11.68
2022-12-25T15:31:30.853Z,15.70
2022-12-25T15:34:03.294Z,14.18
2022-12-25T15:36:43.418Z,11.02
2022-12-25T15:39:25.848Z,13.20
2022-12-25T15:42:14.636Z,10.63
2022-12-25T15:44:58.293Z,14.40
2022-12-25T15:47:26.952Z,14.10
2022-12-25T15:50:00.035Z,10.60
2022-12-25T15:52:31.297Z,11.85
2022-12-25T15:55:06.186Z,12.02
2022-12-25T15:57:50.668Z,9.97
2022-12-25T16:00:28.240Z,11.85
2022-12-25T16:03:27.807Z,14.25
2022-12-25T16:06:03.923Z,12.27
2022-12-25T16:08:31.123Z,13.05
2022-12-25T16:11:09.678Z,11.43
2022-12-25T16:13:47.469Z,12.45
2022-12-25T16:16:16.541Z,9.23
2022-12-25T16:18:47.700Z,10.57
2022-12-25T16:21:23.002Z,11.10
2022-12-25T16:24:01.911Z,10.40
2022-12-25T16:26:49.030Z,8.43
2022-12-25T16:29:23.994Z,10.10
2022-12-25T16:31:54.975Z,8.90
2022-12-25T16:34:25.382Z,11.20
2022-12-25T16:37:02.139Z,9.63
2022-12-25T16:39:31.702Z,12.00
2022-12-25T16:42:13.590Z,10.32
2022-12-25T16:44:45.884Z,11.45
2022-12-25T16:47:13.043Z,11.82
2022-12-25T16:49:54.047Z,12.90
2022-12-25T16:52:27.600Z,13.85
2022-12-25T16:59:11.935Z,14.13
2022-12-25T17:01:47.022Z,13.43
2022-12-25T17:04:21.065Z,14.27
2022-12-25T17:06:55.245Z,15.68
2022-12-25T17:09:27.119Z,12.32
2022-12-25T17:12:10.171Z,11.50
2022-12-25T17:14:37.368Z,10.55
2022-12-25T17:17:07.535Z,10.17
2022-12-25T17:19:39.457Z,10.27
2022-12-25T17:22:12.143Z,12.70
2022-12-25T17:24:44.616Z,11.90
2022-12-25T17:27:38.679Z,15.85
2022-12-25T17:30:17.138Z,12.47
2022-12-25T17:33:00.524Z,15.35
2022-12-25T17:35:35.100Z,16.30
2022-12-25T17:38:06.332Z,15.40
2022-12-25T17:40:40.340Z,16.73
2022-12-25T17:43:22.247Z,18.50
2022-12-25T17:46:21.311Z,14.82
2022-12-25T17:48:54.294Z,16.45
2022-12-25T17:51:36.503Z,17.20
2022-12-25T17:54:07.285Z,14.70
2022-12-25T17:56:40.931Z,20.23
2022-12-25T17:59:18.751Z,18.15
2022-12-25T18:01:55.291Z,17.83
2022-12-25T18:04:30.056Z,17.60
2022-12-25T18:07:01.705Z,18.73
2022-12-25T18:09:38.806Z,15.93
2022-12-25T18:12:10.629Z,15.90
2022-12-25T18:14:37.848Z,14.55
2022-12-25T18:17:21.785Z,16.00
2022-12-25T18:20:24.004Z,20.38
2022-12-25T18:23:22.614Z,17.97
2022-12-25T18:26:08.486Z,15.65
2022-12-25T18:28:49.028Z,16.33
2022-12-25T18:31:25.935Z,14.90
2022-12-25T18:34:02.654Z,17.05
2022-12-25T18:36:36.894Z,15.27
2022-12-25T18:42:22.427Z,12.80
2022-12-25T18:44:56.551Z,16.48
2022-12-25T18:47:27.456Z,16.60
2022-12-25T18:50:00.471Z,15.10
2022-12-25T18:52:49.507Z,16.00
2022-12-25T18:55:19.009Z,15.82
2022-12-25T18:58:13.517Z,19.17
2022-12-25T19:00:44.906Z,16.27
2022-12-25T19:03:20.148Z,16.97
2022-12-25T19:05:56.035Z,15.35
2022-12-25T19:08:26.089Z,16.30
2022-12-25T19:11:15.786Z,14.45
2022-12-25T19:13:48.771Z,16.83
2022-12-25T19:16:25.972Z,15.63
2022-12-25T19:18:58.667Z,17.27
2022-12-25T19:21:40.839Z,20.92
2022-12-25T19:24:16.719Z,23.25
2022-12-25T19:26:52.612Z,20.20
2022-12-25T19:29:30.202Z,18.60
2022-12-25T19:32:00.821Z,19.10
2022-12-25T19:34:32.675Z,22.35
2022-12-25T19:37:09.987Z,20.48
2022-12-25T19:39:57.840Z,23.45
2022-12-25T19:42:42.092Z,20.80
2022-12-25T19:45:15.636Z,24.25
2022-12-25T19:47:47.506Z,26.17
2022-12-25T19:50:28.407Z,22.50
2022-12-25T19:53:11.204Z,19.00
2022-12-25T19:55:42.025Z,23.30
2022-12-25T19:58:13.428Z,21.58
2022-12-25T20:01:07.379Z,18.83
2022-12-25T20:03:45.805Z,25.70
2022-12-25T20:06:19.820Z,24.13
2022-12-25T20:09:05.577Z,23.67
2022-12-25T20:11:50.215Z,25.85
2022-12-25T20:18:37.926Z,21.42
2022-12-25T20:21:20.881Z,20.70
2022-12-25T20:23:56.541Z,20.90
2022-12-25T20:26:35.286Z,26.15
2022-12-25T20:29:09.810Z,23.83
2022-12-25T20:31:46.611Z,23.48
2022-12-25T20:34:31.601Z,23.95
2022-12-25T20:37:01.314Z,24.00
2022-12-25T20:39:38.694Z,21.98
2022-12-25T20:42:11.661Z,26.55
2022-12-25T20:44:44.700Z,24.92
2022-12-25T20:47:15.218Z,25.93
2022-12-25T20:49:51.718Z,24.77
2022-12-25T20:52:35.980Z,28.38
2022-12-25T20:55:08.755Z,27.85
2022-12-25T20:57:43.878Z,27.42
2022-12-25T21:01:17.884Z,27.88
2022-12-25T21:04:20.778Z,27.13
2022-12-25T21:06:51.139Z,28.77
2022-12-25T21:09:22.994Z,29.45
2022-12-25T21:12:02.437Z,32.88
2022-12-25T21:14:40.543Z,29.45
2022-12-25T21:17:14.041Z,28.43
2022-12-25T21:19:54.915Z,31.75
2022-12-25T21:22:48.375Z,31.65
2022-12-25T21:25:26.173Z,34.72
2022-12-25T21:28:00.654Z,32.60
2022-12-25T21:30:30.834Z,28.80
2022-12-25T21:33:19.886Z,32.28
2022-12-25T21:35:49.342Z,34.63
2022-12-25T21:38:24.742Z,34.47
2022-12-25T21:40:55.145Z,31.15
2022-12-25T21:43:27.790Z,33.33
2022-12-25T21:46:19.479Z,35.35
2022-12-25T21:48:49.087Z,34.08
2022-12-25T21:51:54.351Z,33.58
2022-12-25T21:54:38.811Z,34.50
2022-12-25T21:57:15.190Z,31.07
2022-12-25T21:59:47.744Z,33.75
2022-12-25T22:02:27.119Z,34.72
2022-12-25T22:04:58.560Z,37.65
2022-12-25T22:07:28.443Z,37.53
2022-12-25T22:10:03.209Z,36.57
2022-12-25T22:12:56.082Z,40.25
2022-12-25T22:15:52.477Z,38.15
2022-12-25T22:18:42.103Z,36.45
2022-12-25T22:21:23.065Z,37.35
2022-12-25T22:23:53.258Z,36.27
2022-12-25T22:26:36.455Z,39.75
2022-12-25T22:29:16.158Z,36.58
2022-12-25T22:31:53.440Z,41.35
2022-12-25T22:34:25.753Z,43.53
2022-12-25T22:37:03.074Z,39.83
2022-12-25T22:39:37.459Z,39.97
2022-12-25T22:42:19.100Z,41.92
2022-12-25T22:45:01.337Z,35.92
2022-12-25T22:47:35.659Z,37.47
2022-12-25T22:50:08.143Z,40.67
2022-12-25T22:52:36.190Z,39.05
2022-12-25T22:55:10.905Z,37.50
2022-12-25T22:57:40.362Z,38.60
2022-12-25T23:00:13.608Z,36.88
2022-12-25T23:02:46.260Z,44.43
2022-12-25T23:05:23.016Z,39.63
2022-12-25T23:08:02.103Z,42.30
2022-12-25T23:10:31.913Z,39.60
2022-12-25T23:13:36.748Z,40.30
2022-12-25T23:16:16.859Z,42.23
2022-12-25T23:19:09.570Z,39.53
2022-12-25T23:21:56.792Z,39.85
2022-12-25T23:24:45.384Z,37.15
2022-12-25T23:27:23.585Z,38.03
2022-12-25T23:29:55.114Z,42.43
2022-12-25T23:32:28.837Z,38.10
2022-12-25T23:35:09.159Z,38.75
2022-12-25T23:37:47.679Z,45.45
2022-12-25T23:40:15.607Z,38.60
2022-12-25T23:42:46.713Z,41.40
2022-12-25T23:45:18.991Z,38.13
2022-12-25T23:47:47.683Z,39.92
2022-12-25T23:50:27.082Z,44.25
2022-12-25T23:52:59.799Z,36.42
2022-12-25T23:55:29.225Z,36.87
2022-12-25T23:57:57.251Z,39.00
